createdAt,value
2023-05-01T18:10:38.020Z,51.39
2023-05-01T18:11:39.028Z,51.39
2023-05-01T18:12:39.154Z,51.39
2023-05-01T18:13:39.217Z,51.29
2023-05-01T18:14:39.284Z,51.29
2023-05-01T18:19:24.025Z,51.29
2023-05-01T18:20:25.089Z,51.39
2023-05-01T18:21:25.187Z,51.29
2023-05-01T18:22:25.268Z,51.29
2023-05-01T18:23:25.374Z,51.29
2023-05-01T18:24:25.520Z,52.29
2023-05-01T18:25:25.475Z,51.50
2023-05-01T18:26:25.617Z,51.50
2023-05-01T18:27:25.642Z,45.69
2023-05-01T18:28:25.685Z,45.31
2023-05-01T18:29:25.770Z,45.96
2023-05-01T18:30:25.864Z,46.61
2023-05-01T18:31:26.008Z,47.96
2023-05-01T18:32:35.855Z,47.90
2023-05-01T18:33:26.156Z,49.35
2023-05-01T18:34:26.196Z,50.40
2023-05-01T18:35:26.285Z,51.06
2023-05-01T18:36:26.399Z,51.71
2023-05-01T18:37:26.450Z,52.87
2023-05-01T18:38:28.392Z,53.70
2023-05-01T18:39:26.624Z,55.94
2023-05-01T18:40:26.710Z,56.78
2023-05-01T18:41:26.824Z,57.31
2023-05-01T18:42:26.975Z,57.72
2023-05-01T18:43:26.956Z,56.33
2023-05-01T18:44:27.075Z,56.43
2023-05-01T18:45:27.149Z,58.07
2023-05-01T18:46:27.301Z,58.38
2023-05-01T18:47:27.289Z,57.87
2023-05-01T18:48:27.438Z,57.50
2023-05-01T18:49:27.437Z,57.60
2023-05-01T18:50:27.542Z,57.50
2023-05-01T18:51:27.654Z,59.25
2023-05-01T18:52:27.695Z,59.65
2023-05-01T18:53:27.777Z,59.05
2023-05-01T18:54:27.847Z,60.39
2023-05-01T18:55:27.966Z,60.19
2023-05-01T18:56:28.048Z,59.78
2023-05-01T18:57:28.094Z,61.02
2023-05-01T18:58:28.175Z,61.53
2023-05-01T18:59:28.271Z,61.63
2023-05-01T19:00:28.334Z,61.74
2023-05-01T19:01:28.534Z,61.36
2023-05-01T19:02:28.536Z,63.29
2023-05-01T19:03:28.612Z,62.88
2023-05-01T19:04:28.684Z,62.57
2023-05-01T19:05:28.836Z,61.76
2023-05-01T19:06:28.938Z,61.97
2023-05-01T19:07:28.909Z,62.68
2023-05-01T19:08:28.995Z,61.97
2023-05-01T19:09:29.067Z,61.05
2023-05-01T19:10:29.159Z,60.65
2023-05-01T19:11:29.256Z,61.36
2023-05-01T19:12:29.315Z,60.55
2023-05-01T19:13:29.350Z,60.35
2023-05-01T19:14:29.443Z,61.66
2023-05-01T19:15:29.545Z,63.18
2023-05-01T19:16:29.699Z,61.36
2023-05-01T19:17:29.687Z,60.14
2023-05-01T19:18:29.784Z,61.05
2023-05-01T19:19:29.834Z,61.56
2023-05-01T19:22:02.686Z,62.17
2023-05-01T19:23:03.728Z,61.66
2023-05-01T19:24:03.790Z,62.17
2023-05-01T19:25:03.892Z,60.65
2023-05-01T19:26:03.988Z,59.84
2023-05-01T19:27:04.082Z,59.53
2023-05-01T19:28:04.114Z,62.27
2023-05-01T19:29:04.161Z,60.44
2023-05-01T19:30:04.259Z,58.54
2023-05-01T19:31:04.342Z,59.26
2023-05-01T19:32:04.499Z,59.46
2023-05-01T19:33:04.556Z,58.54
2023-05-01T19:34:04.620Z,58.95
2023-05-01T19:35:04.675Z,59.77
2023-05-01T19:36:04.706Z,59.77
2023-05-01T19:37:04.808Z,58.65
2023-05-01T19:38:04.892Z,58.85
2023-05-01T19:39:04.988Z,58.75
2023-05-01T19:40:05.064Z,58.75
2023-05-01T19:41:05.107Z,58.14
2023-05-01T19:42:05.222Z,59.77
2023-05-01T19:43:05.288Z,60.37
2023-05-01T19:44:05.333Z,59.26
2023-05-01T19:45:05.424Z,59.97
2023-05-01T19:46:05.544Z,58.65
2023-05-01T19:47:05.634Z,59.46
2023-05-01T19:48:05.696Z,59.05
2023-05-01T19:49:05.800Z,58.75
2023-05-01T19:50:05.840Z,59.05
2023-05-01T19:51:05.963Z,58.85
2023-05-01T19:52:06.072Z,58.65
2023-05-01T19:53:06.130Z,58.24
2023-05-01T19:54:06.180Z,60.17
2023-05-01T19:55:06.297Z,62.51
2023-05-01T19:56:06.332Z,64.53
2023-05-01T19:57:06.496Z,65.14
2023-05-01T19:58:06.519Z,65.48
2023-05-01T19:59:06.575Z,66.19
2023-05-01T20:00:06.650Z,66.08
2023-05-01T20:01:06.777Z,65.99
2023-05-01T20:02:06.987Z,66.08
2023-05-01T20:03:07.005Z,66.69
2023-05-01T20:04:07.013Z,66.69
2023-05-01T20:05:07.103Z,66.80
2023-05-01T20:06:07.154Z,67.24
2023-05-01T20:07:07.251Z,66.90
2023-05-01T20:08:07.331Z,66.63
2023-05-01T20:09:07.360Z,64.29
2023-05-01T20:10:07.493Z,64.90
2023-05-01T20:11:07.545Z,63.88
2023-05-01T20:12:07.641Z,64.79
2023-05-01T20:13:07.679Z,65.51
2023-05-01T20:14:07.717Z,66.83
2023-05-01T20:15:07.789Z,66.93
2023-05-01T20:16:07.930Z,66.63
2023-05-01T20:17:08.107Z,66.72
2023-05-01T20:18:08.079Z,66.63
2023-05-01T20:19:08.084Z,67.74
2023-05-01T20:20:08.216Z,67.64
2023-05-01T20:21:08.282Z,67.74
2023-05-01T20:22:08.429Z,67.03
2023-05-01T20:23:08.471Z,66.55
2023-05-01T20:24:08.526Z,66.76
2023-05-01T20:25:09.697Z,67.27
2023-05-01T20:26:08.711Z,67.47
2023-05-01T20:27:08.820Z,67.36
2023-05-01T20:28:08.906Z,65.64
2023-05-01T20:29:08.972Z,62.59
2023-05-01T20:30:09.085Z,62.70
2023-05-01T20:31:09.153Z,62.90
2023-05-01T20:32:09.256Z,64.32
2023-05-01T20:33:09.350Z,64.52
2023-05-01T20:34:09.353Z,65.44
2023-05-01T20:35:09.399Z,64.93
2023-05-01T20:36:09.519Z,65.13
2023-05-01T20:37:09.632Z,64.93
2023-05-01T20:38:09.699Z,67.06
2023-05-01T20:39:09.775Z,66.46
2023-05-01T20:40:09.846Z,66.15
2023-05-01T20:41:09.937Z,66.15
2023-05-01T20:42:10.029Z,66.05
2023-05-01T20:43:10.087Z,64.76
2023-05-01T20:44:10.163Z,63.74
2023-05-01T20:45:10.236Z,64.04
2023-05-01T20:46:10.380Z,63.54
2023-05-01T20:47:10.394Z,63.74
2023-05-01T20:48:10.513Z,63.84
2023-05-01T20:49:10.536Z,63.51
2023-05-01T20:50:10.639Z,63.51
2023-05-01T20:51:10.716Z,63.51
2023-05-01T20:52:10.817Z,63.81
2023-05-01T20:53:10.853Z,63.91
2023-05-01T20:54:10.972Z,63.81
2023-05-01T20:55:10.986Z,63.91
2023-05-01T20:56:11.102Z,63.91
2023-05-01T20:57:11.181Z,64.01
2023-05-01T20:58:11.275Z,64.22
2023-05-01T20:59:11.373Z,64.12
2023-05-01T21:00:11.435Z,64.01
2023-05-01T21:01:11.557Z,64.22
2023-05-01T21:02:11.719Z,64.52
2023-05-01T21:03:11.735Z,65.03
2023-05-01T21:04:11.845Z,65.23
2023-05-01T21:05:11.850Z,65.23
2023-05-01T21:06:11.908Z,65.13
2023-05-01T21:07:11.987Z,64.93
2023-05-01T21:08:12.008Z,64.52
2023-05-01T21:09:12.076Z,65.54
2023-05-01T21:10:12.152Z,65.84
2023-05-01T21:11:12.257Z,65.54
2023-05-01T21:12:12.363Z,65.33
2023-05-01T21:13:12.408Z,65.03
2023-05-01T21:14:12.478Z,64.62
2023-05-01T21:15:12.560Z,65.64
2023-05-01T21:16:12.692Z,67.71
2023-05-01T21:17:12.766Z,68.62
2023-05-01T21:18:12.818Z,69.13
2023-05-01T21:19:12.890Z,68.82
2023-05-01T21:20:12.959Z,68.32
2023-05-01T21:21:13.015Z,68.32
2023-05-01T21:22:13.151Z,69.43
2023-05-01T21:23:13.147Z,69.77
2023-05-01T21:24:13.238Z,68.96
2023-05-01T21:25:13.312Z,68.75
2023-05-01T21:26:13.367Z,69.26
2023-05-01T21:27:13.527Z,69.67
2023-05-01T21:28:13.578Z,70.07
2023-05-01T21:29:13.681Z,70.48
2023-05-01T21:30:13.732Z,70.68
2023-05-01T21:31:13.836Z,70.79
2023-05-01T21:32:13.913Z,71.09
2023-05-01T21:33:13.964Z,70.48
2023-05-01T21:34:14.035Z,70.18
2023-05-01T21:35:17.328Z,70.31
2023-05-01T21:36:14.158Z,70.82
2023-05-01T21:37:14.279Z,71.84
2023-05-01T21:38:14.347Z,71.84
2023-05-01T21:39:14.392Z,71.43
2023-05-01T21:40:14.697Z,71.94
2023-05-01T21:41:14.557Z,71.84
2023-05-01T21:42:14.655Z,71.02
2023-05-01T21:43:14.697Z,70.82
2023-05-01T21:44:14.795Z,70.72
2023-05-01T21:45:14.841Z,70.01
2023-05-01T21:46:14.917Z,71.12
2023-05-01T21:47:15.057Z,70.62
2023-05-01T21:48:15.171Z,70.62
2023-05-01T21:49:15.174Z,70.01
2023-05-01T21:50:15.288Z,69.40
2023-05-01T21:51:15.366Z,69.19
2023-05-01T21:52:15.509Z,68.68
2023-05-01T21:53:15.524Z,69.09
2023-05-01T21:54:15.600Z,69.70
2023-05-01T21:55:15.667Z,68.27
2023-05-01T21:56:15.791Z,68.38
2023-05-01T21:57:15.882Z,68.55
2023-05-01T21:58:15.909Z,68.24
2023-05-01T21:59:15.991Z,67.83
2023-05-01T22:00:16.081Z,67.94
2023-05-01T22:01:16.264Z,67.94
2023-05-01T22:02:16.248Z,67.53
2023-05-01T22:03:16.443Z,67.83
2023-05-01T22:04:16.660Z,68.35
2023-05-01T22:05:16.546Z,68.14
2023-05-01T22:06:16.575Z,68.14
2023-05-01T22:07:16.667Z,67.83
2023-05-01T22:08:16.712Z,68.55
2023-05-01T22:09:16.787Z,69.06
2023-05-01T22:10:16.852Z,68.55
2023-05-01T22:11:16.936Z,68.55
2023-05-01T22:12:17.040Z,69.36
2023-05-01T22:13:17.097Z,70.01
2023-05-01T22:14:17.180Z,69.90
2023-05-01T22:15:17.257Z,70.01
2023-05-01T22:16:17.366Z,70.10
2023-05-01T22:17:17.447Z,69.80
2023-05-01T22:18:17.503Z,69.40
2023-05-01T22:19:17.538Z,69.60
2023-05-01T22:20:17.625Z,69.80
2023-05-01T22:21:17.678Z,69.80
2023-05-01T22:22:17.834Z,69.19
2023-05-01T22:23:17.848Z,69.49
2023-05-01T22:24:17.894Z,70.41
2023-05-01T22:25:17.986Z,69.90
2023-05-01T22:26:18.085Z,70.55
2023-05-01T22:27:18.154Z,71.16
2023-05-01T22:28:19.094Z,70.86
2023-05-01T22:29:18.248Z,70.75
2023-05-01T22:30:18.326Z,71.26
2023-05-01T22:31:18.530Z,71.67
2023-05-01T22:32:18.631Z,71.47
2023-05-01T22:33:18.621Z,71.06
2023-05-01T22:34:18.664Z,70.95
2023-05-01T22:35:18.734Z,70.86
2023-05-01T22:36:18.828Z,71.36
2023-05-01T22:37:19.005Z,70.86
2023-05-01T22:38:18.987Z,70.95
2023-05-01T22:39:19.096Z,71.06
2023-05-01T22:40:19.129Z,71.26
2023-05-01T22:41:19.194Z,71.16
2023-05-01T22:42:19.320Z,71.16
2023-05-01T22:43:19.384Z,71.87
2023-05-01T22:44:22.169Z,72.08
2023-05-01T22:45:19.558Z,72.08
2023-05-01T22:46:19.661Z,71.97
2023-05-01T22:47:19.734Z,71.67
2023-05-01T22:48:19.829Z,71.36
2023-05-01T22:49:19.913Z,72.48
2023-05-01T22:50:19.985Z,72.48
2023-05-01T22:51:20.064Z,72.69
2023-05-01T22:52:20.186Z,72.17
2023-05-01T22:53:20.228Z,72.17
2023-05-01T22:54:20.317Z,72.08
2023-05-01T22:55:20.384Z,71.87
2023-05-01T22:56:20.477Z,71.77
2023-05-01T22:57:20.583Z,71.77
2023-05-01T22:58:20.656Z,72.01
2023-05-01T22:59:20.719Z,72.11
2023-05-01T23:00:20.804Z,72.62
2023-05-01T23:01:20.934Z,73.23
2023-05-01T23:02:21.124Z,73.02
2023-05-01T23:03:21.162Z,72.82
2023-05-01T23:04:21.218Z,72.72
2023-05-01T23:05:21.243Z,73.02
2023-05-01T23:06:21.388Z,73.33
2023-05-01T23:07:21.437Z,73.43
2023-05-01T23:08:21.493Z,73.54
2023-05-01T23:09:21.549Z,73.43
2023-05-01T23:10:21.634Z,73.43
2023-05-01T23:11:21.730Z,73.74
2023-05-01T23:12:21.881Z,73.94
2023-05-01T23:13:21.887Z,74.04
2023-05-01T23:14:21.971Z,73.64
2023-05-01T23:15:22.052Z,73.43
2023-05-01T23:16:22.161Z,73.02
2023-05-01T23:17:22.316Z,73.02
2023-05-01T23:18:22.281Z,72.92
2023-05-01T23:19:22.385Z,72.82
2023-05-01T23:20:22.503Z,72.92
2023-05-01T23:21:22.533Z,73.02
2023-05-01T23:22:22.662Z,72.82
2023-05-01T23:23:22.728Z,72.92
2023-05-01T23:24:22.808Z,72.72
2023-05-01T23:25:22.866Z,72.82
2023-05-01T23:26:22.960Z,72.72
2023-05-01T23:27:23.062Z,72.52
2023-05-01T23:28:23.094Z,72.31
2023-05-01T23:29:23.182Z,72.21
2023-05-01T23:30:23.275Z,72.21
2023-05-01T23:31:23.393Z,72.11
2023-05-01T23:32:23.454Z,72.01
2023-05-01T23:33:23.470Z,72.11
2023-05-01T23:34:23.559Z,72.31
2023-05-01T23:35:23.797Z,72.11
2023-05-01T23:36:23.725Z,72.11
2023-05-01T23:37:23.812Z,72.21
2023-05-01T23:38:23.859Z,72.21
2023-05-01T23:39:23.925Z,72.21
2023-05-01T23:40:24.001Z,72.31
2023-05-01T23:41:24.086Z,72.31
2023-05-01T23:42:24.183Z,72.72
2023-05-01T23:43:24.237Z,72.72
2023-05-01T23:44:24.338Z,72.92
2023-05-01T23:45:24.403Z,73.02
2023-05-01T23:46:24.502Z,72.72
2023-05-01T23:47:24.633Z,72.72
2023-05-01T23:48:24.630Z,73.54
2023-05-01T23:49:24.688Z,73.54
2023-05-01T23:50:24.780Z,73.74
2023-05-01T23:51:24.877Z,74.04
2023-05-01T23:52:24.989Z,74.45
2023-05-01T23:53:25.005Z,74.45
2023-05-01T23:54:25.078Z,74.76
2023-05-01T23:55:25.127Z,75.40
2023-05-01T23:56:25.230Z,75.20
2023-05-01T23:57:25.320Z,75.20
2023-05-01T23:58:25.372Z,75.30
2023-05-01T23:59:25.419Z,75.51
